sensor_id;sensor_type;location;lat;lon;timestamp;P1;durP1;ratioP1;P2;durP2;ratioP2
21138;SDS011;10727;43.600;1.444;2023-05-02T00:00:24;2.92;;;1.60;;
21138;SDS011;10727;43.600;1.444;2023-05-02T00:03:29;3.45;;;1.80;;
21138;SDS011;10727;43.600;1.444;2023-05-02T00:06:35;4.03;;;1.60;;
21138;SDS011;10727;43.600;1.444;2023-05-02T00:09:42;3.00;;;1.60;;
21138;SDS011;10727;43.600;1.444;2023-05-02T00:12:47;4.53;;;1.52;;
21138;SDS011;10727;43.600;1.444;2023-05-02T00:15:52;4.47;;;1.85;;
21138;SDS011;10727;43.600;1.444;2023-05-02T00:18:57;3.60;;;1.70;;
21138;SDS011;10727;43.600;1.444;2023-05-02T00:22:02;3.75;;;1.70;;
21138;SDS011;10727;43.600;1.444;2023-05-02T00:25:09;3.38;;;1.60;;
21138;SDS011;10727;43.600;1.444;2023-05-02T00:28:17;6.95;;;1.70;;
21138;SDS011;10727;43.600;1.444;2023-05-02T00:31:22;7.32;;;1.70;;
21138;SDS011;10727;43.600;1.444;2023-05-02T00:34:28;4.78;;;1.98;;
21138;SDS011;10727;43.600;1.444;2023-05-02T00:37:33;5.32;;;2.10;;
21138;SDS011;10727;43.600;1.444;2023-05-02T00:40:43;4.18;;;1.88;;
21138;SDS011;10727;43.600;1.444;2023-05-02T00:43:49;3.40;;;1.90;;
21138;SDS011;10727;43.600;1.444;2023-05-02T00:46:54;3.17;;;1.80;;
21138;SDS011;10727;43.600;1.444;2023-05-02T00:49:59;3.38;;;1.70;;
21138;SDS011;10727;43.600;1.444;2023-05-02T00:53:07;3.13;;;1.90;;
21138;SDS011;10727;43.600;1.444;2023-05-02T00:56:14;5.55;;;1.90;;
21138;SDS011;10727;43.600;1.444;2023-05-02T00:59:19;5.45;;;1.70;;
21138;SDS011;10727;43.600;1.444;2023-05-02T01:02:27;4.22;;;1.83;;
21138;SDS011;10727;43.600;1.444;2023-05-02T01:05:35;4.72;;;2.08;;
21138;SDS011;10727;43.600;1.444;2023-05-02T01:08:46;3.15;;;1.95;;
21138;SDS011;10727;43.600;1.444;2023-05-02T01:11:58;5.07;;;1.70;;
21138;SDS011;10727;43.600;1.444;2023-05-02T01:15:06;10.73;;;2.10;;
21138;SDS011;10727;43.600;1.444;2023-05-02T01:18:13;8.30;;;3.40;;
21138;SDS011;10727;43.600;1.444;2023-05-02T01:21:20;9.48;;;4.85;;
21138;SDS011;10727;43.600;1.444;2023-05-02T01:24:27;6.55;;;2.40;;
21138;SDS011;10727;43.600;1.444;2023-05-02T01:27:39;4.57;;;2.03;;
21138;SDS011;10727;43.600;1.444;2023-05-02T01:30:47;5.13;;;1.88;;
21138;SDS011;10727;43.600;1.444;2023-05-02T01:33:54;7.07;;;2.03;;
21138;SDS011;10727;43.600;1.444;2023-05-02T01:37:00;4.40;;;2.10;;
21138;SDS011;10727;43.600;1.444;2023-05-02T01:40:06;3.13;;;1.83;;
21138;SDS011;10727;43.600;1.444;2023-05-02T01:43:12;5.18;;;2.00;;
21138;SDS011;10727;43.600;1.444;2023-05-02T01:46:19;3.78;;;1.90;;
21138;SDS011;10727;43.600;1.444;2023-05-02T01:49:25;6.22;;;2.03;;
21138;SDS011;10727;43.600;1.444;2023-05-02T01:52:30;3.90;;;2.15;;
21138;SDS011;10727;43.600;1.444;2023-05-02T01:55:36;6.93;;;2.10;;
21138;SDS011;10727;43.600;1.444;2023-05-02T01:58:42;7.35;;;1.98;;
21138;SDS011;10727;43.600;1.444;2023-05-02T02:01:50;4.32;;;2.00;;
21138;SDS011;10727;43.600;1.444;2023-05-02T02:04:56;4.75;;;2.10;;
21138;SDS011;10727;43.600;1.444;2023-05-02T02:08:01;7.50;;;2.00;;
21138;SDS011;10727;43.600;1.444;2023-05-02T02:11:08;3.45;;;1.88;;
21138;SDS011;10727;43.600;1.444;2023-05-02T02:14:15;3.78;;;2.10;;
21138;SDS011;10727;43.600;1.444;2023-05-02T02:17:23;6.22;;;2.13;;
21138;SDS011;10727;43.600;1.444;2023-05-02T02:20:29;3.15;;;2.10;;
21138;SDS011;10727;43.600;1.444;2023-05-02T02:23:35;6.20;;;2.05;;
21138;SDS011;10727;43.600;1.444;2023-05-02T02:26:45;4.82;;;1.92;;
21138;SDS011;10727;43.600;1.444;2023-05-02T02:29:50;4.70;;;2.05;;
21138;SDS011;10727;43.600;1.444;2023-05-02T02:32:57;4.40;;;1.85;;
21138;SDS011;10727;43.600;1.444;2023-05-02T02:36:04;6.40;;;2.20;;
21138;SDS011;10727;43.600;1.444;2023-05-02T12:53:09;5.70;;;1.58;;
21138;SDS011;10727;43.600;1.444;2023-05-02T12:56:14;4.97;;;1.85;;
21138;SDS011;10727;43.600;1.444;2023-05-02T12:59:26;3.65;;;2.10;;
21138;SDS011;10727;43.600;1.444;2023-05-02T13:02:32;2.92;;;1.40;;
21138;SDS011;10727;43.600;1.444;2023-05-02T13:05:37;8.95;;;2.05;;
21138;SDS011;10727;43.600;1.444;2023-05-02T13:08:44;14.32;;;3.28;;
21138;SDS011;10727;43.600;1.444;2023-05-02T13:11:49;6.38;;;2.45;;
21138;SDS011;10727;43.600;1.444;2023-05-02T13:14:56;3.15;;;2.10;;
21138;SDS011;10727;43.600;1.444;2023-05-02T13:18:01;4.90;;;2.20;;
21138;SDS011;10727;43.600;1.444;2023-05-02T13:21:06;3.17;;;1.50;;
21138;SDS011;10727;43.600;1.444;2023-05-02T13:24:12;6.00;;;1.60;;
21138;SDS011;10727;43.600;1.444;2023-05-02T13:27:21;5.40;;;1.80;;
21138;SDS011;10727;43.600;1.444;2023-05-02T13:30:27;2.75;;;1.40;;
21138;SDS011;10727;43.600;1.444;2023-05-02T13:33:32;6.95;;;1.88;;
21138;SDS011;10727;43.600;1.444;2023-05-02T13:36:38;5.03;;;2.17;;
21138;SDS011;10727;43.600;1.444;2023-05-02T13:39:49;5.82;;;1.15;;
21138;SDS011;10727;43.600;1.444;2023-05-02T13:42:54;5.38;;;1.40;;
21138;SDS011;10727;43.600;1.444;2023-05-02T13:46:00;5.20;;;1.30;;
21138;SDS011;10727;43.600;1.444;2023-05-02T13:49:05;4.53;;;1.13;;
21138;SDS011;10727;43.600;1.444;2023-05-02T13:52:10;5.40;;;1.30;;
21138;SDS011;10727;43.600;1.444;2023-05-02T13:55:16;8.75;;;1.40;;
21138;SDS011;10727;43.600;1.444;2023-05-02T13:58:22;4.95;;;1.30;;
21138;SDS011;10727;43.600;1.444;2023-05-02T14:01:26;6.90;;;1.67;;
21138;SDS011;10727;43.600;1.444;2023-05-02T14:04:31;7.97;;;1.67;;
21138;SDS011;10727;43.600;1.444;2023-05-02T14:07:37;4.53;;;1.52;;
21138;SDS011;10727;43.600;1.444;2023-05-02T14:10:43;4.57;;;1.75;;
21138;SDS011;10727;43.600;1.444;2023-05-02T14:13:49;6.25;;;1.63;;
21138;SDS011;10727;43.600;1.444;2023-05-02T14:16:55;3.83;;;1.42;;
21138;SDS011;10727;43.600;1.444;2023-05-02T14:20:01;1.77;;;1.20;;
21138;SDS011;10727;43.600;1.444;2023-05-02T14:23:06;3.35;;;1.80;;
21138;SDS011;10727;43.600;1.444;2023-05-02T14:26:13;3.53;;;1.58;;
21138;SDS011;10727;43.600;1.444;2023-05-02T14:29:18;4.40;;;1.35;;
21138;SDS011;10727;43.600;1.444;2023-05-02T14:32:23;3.17;;;1.70;;
21138;SDS011;10727;43.600;1.444;2023-05-02T14:35:28;3.83;;;1.55;;
21138;SDS011;10727;43.600;1.444;2023-05-02T14:38:34;3.10;;;1.50;;
21138;SDS011;10727;43.600;1.444;2023-05-02T14:41:40;3.47;;;0.80;;
21138;SDS011;10727;43.600;1.444;2023-05-02T14:44:46;3.50;;;1.60;;
21138;SDS011;10727;43.600;1.444;2023-05-02T14:47:51;3.88;;;1.77;;
21138;SDS011;10727;43.600;1.444;2023-05-02T14:50:56;3.92;;;1.40;;
21138;SDS011;10727;43.600;1.444;2023-05-02T14:54:25;3.38;;;1.48;;
21138;SDS011;10727;43.600;1.444;2023-05-02T14:57:48;2.90;;;1.20;;
21138;SDS011;10727;43.600;1.444;2023-05-02T15:00:53;3.05;;;1.30;;
21138;SDS011;10727;43.600;1.444;2023-05-02T15:03:58;1.92;;;1.23;;
21138;SDS011;10727;43.600;1.444;2023-05-02T15:07:04;2.63;;;1.20;;
21138;SDS011;10727;43.600;1.444;2023-05-02T15:10:09;2.25;;;1.05;;
21138;SDS011;10727;43.600;1.444;2023-05-02T15:13:16;7.03;;;1.13;;
21138;SDS011;10727;43.600;1.444;2023-05-02T15:16:21;3.88;;;1.70;;
21138;SDS011;10727;43.600;1.444;2023-05-02T15:19:27;2.40;;;1.45;;
21138;SDS011;10727;43.600;1.444;2023-05-02T15:22:32;3.30;;;1.23;;
21138;SDS011;10727;43.600;1.444;2023-05-02T15:25:37;5.05;;;1.20;;
21138;SDS011;10727;43.600;1.444;2023-05-02T15:28:43;1.48;;;1.20;;
21138;SDS011;10727;43.600;1.444;2023-05-02T15:31:48;4.72;;;1.45;;
21138;SDS011;10727;43.600;1.444;2023-05-02T15:34:53;3.30;;;1.13;;
21138;SDS011;10727;43.600;1.444;2023-05-02T15:38:03;2.03;;;1.02;;
21138;SDS011;10727;43.600;1.444;2023-05-02T15:44:31;2.45;;;1.27;;
21138;SDS011;10727;43.600;1.444;2023-05-02T15:47:38;2.03;;;0.95;;
21138;SDS011;10727;43.600;1.444;2023-05-02T15:50:44;2.13;;;1.02;;
21138;SDS011;10727;43.600;1.444;2023-05-02T15:53:49;2.55;;;1.00;;
21138;SDS011;10727;43.600;1.444;2023-05-02T15:56:55;3.28;;;1.10;;
21138;SDS011;10727;43.600;1.444;2023-05-02T16:00:01;3.13;;;1.35;;
21138;SDS011;10727;43.600;1.444;2023-05-02T16:03:07;1.58;;;1.00;;
21138;SDS011;10727;43.600;1.444;2023-05-02T16:06:14;2.97;;;1.10;;
21138;SDS011;10727;43.600;1.444;2023-05-02T16:09:19;2.50;;;1.30;;
21138;SDS011;10727;43.600;1.444;2023-05-02T16:12:24;2.38;;;1.30;;
21138;SDS011;10727;43.600;1.444;2023-05-02T16:15:30;3.05;;;1.50;;
21138;SDS011;10727;43.600;1.444;2023-05-02T16:18:36;2.95;;;1.10;;
21138;SDS011;10727;43.600;1.444;2023-05-02T16:21:41;2.58;;;1.15;;
21138;SDS011;10727;43.600;1.444;2023-05-02T16:24:47;1.77;;;0.95;;
21138;SDS011;10727;43.600;1.444;2023-05-02T16:27:51;1.98;;;0.98;;
21138;SDS011;10727;43.600;1.444;2023-05-02T16:30:58;1.60;;;1.23;;
21138;SDS011;10727;43.600;1.444;2023-05-02T16:34:09;1.45;;;1.20;;
21138;SDS011;10727;43.600;1.444;2023-05-02T16:37:14;5.93;;;1.27;;
21138;SDS011;10727;43.600;1.444;2023-05-02T16:40:19;1.88;;;1.15;;
21138;SDS011;10727;43.600;1.444;2023-05-02T16:43:24;2.78;;;1.27;;
21138;SDS011;10727;43.600;1.444;2023-05-02T16:46:31;3.17;;;1.13;;
21138;SDS011;10727;43.600;1.444;2023-05-02T16:49:36;6.03;;;1.50;;
21138;SDS011;10727;43.600;1.444;2023-05-02T16:52:41;3.70;;;2.15;;
21138;SDS011;10727;43.600;1.444;2023-05-02T16:55:46;2.80;;;1.50;;
21138;SDS011;10727;43.600;1.444;2023-05-02T16:58:52;2.92;;;1.20;;
21138;SDS011;10727;43.600;1.444;2023-05-02T17:01:58;2.85;;;1.00;;
21138;SDS011;10727;43.600;1.444;2023-05-02T17:05:04;2.17;;;1.10;;
21138;SDS011;10727;43.600;1.444;2023-05-02T17:08:09;1.83;;;1.23;;
21138;SDS011;10727;43.600;1.444;2023-05-02T17:11:15;2.83;;;1.20;;
21138;SDS011;10727;43.600;1.444;2023-05-02T17:14:20;4.05;;;1.20;;
21138;SDS011;10727;43.600;1.444;2023-05-02T17:17:27;3.55;;;1.40;;
21138;SDS011;10727;43.600;1.444;2023-05-02T17:20:33;1.83;;;1.30;;
21138;SDS011;10727;43.600;1.444;2023-05-02T17:23:39;2.40;;;1.25;;
21138;SDS011;10727;43.600;1.444;2023-05-02T17:26:44;1.85;;;1.23;;
21138;SDS011;10727;43.600;1.444;2023-05-02T17:29:50;1.67;;;1.30;;
21138;SDS011;10727;43.600;1.444;2023-05-02T17:32:56;3.08;;;1.30;;
21138;SDS011;10727;43.600;1.444;2023-05-02T17:36:02;3.65;;;1.27;;
21138;SDS011;10727;43.600;1.444;2023-05-02T17:39:09;2.90;;;1.42;;
21138;SDS011;10727;43.600;1.444;2023-05-02T17:42:15;3.45;;;1.35;;
21138;SDS011;10727;43.600;1.444;2023-05-02T17:45:20;2.28;;;1.30;;
21138;SDS011;10727;43.600;1.444;2023-05-02T17:48:26;3.67;;;1.58;;
21138;SDS011;10727;43.600;1.444;2023-05-02T17:51:32;3.60;;;1.55;;
21138;SDS011;10727;43.600;1.444;2023-05-02T17:54:37;3.28;;;1.77;;
21138;SDS011;10727;43.600;1.444;2023-05-02T17:57:42;4.47;;;1.60;;
21138;SDS011;10727;43.600;1.444;2023-05-02T18:00:47;3.17;;;1.60;;
21138;SDS011;10727;43.600;1.444;2023-05-02T18:03:54;2.55;;;1.30;;
21138;SDS011;10727;43.600;1.444;2023-05-02T18:07:00;5.15;;;1.88;;
21138;SDS011;10727;43.600;1.444;2023-05-02T18:10:06;3.00;;;1.33;;
21138;SDS011;10727;43.600;1.444;2023-05-02T18:13:11;7.47;;;4.88;;
21138;SDS011;10727;43.600;1.444;2023-05-02T18:16:16;3.25;;;1.60;;
21138;SDS011;10727;43.600;1.444;2023-05-02T18:19:22;2.00;;;1.60;;
21138;SDS011;10727;43.600;1.444;2023-05-02T18:22:28;4.93;;;2.55;;
21138;SDS011;10727;43.600;1.444;2023-05-02T18:25:33;6.78;;;2.70;;
21138;SDS011;10727;43.600;1.444;2023-05-02T18:28:38;4.65;;;2.47;;
21138;SDS011;10727;43.600;1.444;2023-05-02T18:31:44;3.50;;;1.67;;
21138;SDS011;10727;43.600;1.444;2023-05-02T18:34:55;4.05;;;2.05;;
21138;SDS011;10727;43.600;1.444;2023-05-02T18:38:00;2.55;;;1.73;;
21138;SDS011;10727;43.600;1.444;2023-05-02T18:41:06;3.38;;;1.50;;
21138;SDS011;10727;43.600;1.444;2023-05-02T18:44:12;2.78;;;1.80;;
21138;SDS011;10727;43.600;1.444;2023-05-02T18:47:17;2.85;;;1.70;;
21138;SDS011;10727;43.600;1.444;2023-05-02T18:50:25;5.05;;;2.17;;
21138;SDS011;10727;43.600;1.444;2023-05-02T18:53:30;2.70;;;1.85;;
21138;SDS011;10727;43.600;1.444;2023-05-02T18:56:35;3.47;;;2.20;;
21138;SDS011;10727;43.600;1.444;2023-05-02T18:59:40;4.63;;;2.20;;
21138;SDS011;10727;43.600;1.444;2023-05-02T19:02:45;3.28;;;1.90;;
21138;SDS011;10727;43.600;1.444;2023-05-02T19:05:51;3.75;;;1.85;;
21138;SDS011;10727;43.600;1.444;2023-05-02T19:08:58;5.88;;;2.70;;
21138;SDS011;10727;43.600;1.444;2023-05-02T19:12:03;5.50;;;2.22;;
21138;SDS011;10727;43.600;1.444;2023-05-02T19:15:09;5.18;;;2.53;;
21138;SDS011;10727;43.600;1.444;2023-05-02T19:18:15;5.32;;;2.38;;
21138;SDS011;10727;43.600;1.444;2023-05-02T19:21:21;4.22;;;2.20;;
21138;SDS011;10727;43.600;1.444;2023-05-02T19:24:27;4.30;;;2.10;;
21138;SDS011;10727;43.600;1.444;2023-05-02T19:27:32;5.18;;;2.35;;
21138;SDS011;10727;43.600;1.444;2023-05-02T19:30:38;5.80;;;3.28;;
21138;SDS011;10727;43.600;1.444;2023-05-02T19:33:44;5.57;;;3.42;;
21138;SDS011;10727;43.600;1.444;2023-05-02T19:36:54;7.78;;;5.13;;
21138;SDS011;10727;43.600;1.444;2023-05-02T19:40:00;7.90;;;5.05;;
21138;SDS011;10727;43.600;1.444;2023-05-02T19:43:05;6.05;;;3.92;;
21138;SDS011;10727;43.600;1.444;2023-05-02T19:46:10;5.97;;;3.80;;
21138;SDS011;10727;43.600;1.444;2023-05-02T19:49:16;7.90;;;3.90;;
21138;SDS011;10727;43.600;1.444;2023-05-02T19:52:23;8.45;;;3.88;;
21138;SDS011;10727;43.600;1.444;2023-05-02T19:55:28;5.95;;;3.65;;
21138;SDS011;10727;43.600;1.444;2023-05-02T19:58:33;6.57;;;3.65;;
21138;SDS011;10727;43.600;1.444;2023-05-02T20:01:38;10.20;;;3.78;;
21138;SDS011;10727;43.600;1.444;2023-05-02T20:04:43;7.63;;;3.88;;
21138;SDS011;10727;43.600;1.444;2023-05-02T20:07:50;8.35;;;3.78;;
21138;SDS011;10727;43.600;1.444;2023-05-02T20:10:55;10.07;;;4.10;;
21138;SDS011;10727;43.600;1.444;2023-05-02T20:14:01;5.75;;;3.80;;
21138;SDS011;10727;43.600;1.444;2023-05-02T20:17:06;9.07;;;3.85;;
21138;SDS011;10727;43.600;1.444;2023-05-02T20:20:11;8.77;;;4.88;;
21138;SDS011;10727;43.600;1.444;2023-05-02T20:23:17;7.32;;;3.92;;
21138;SDS011;10727;43.600;1.444;2023-05-02T20:26:22;8.18;;;4.20;;
21138;SDS011;10727;43.600;1.444;2023-05-02T20:29:28;6.63;;;3.88;;
21138;SDS011;10727;43.600;1.444;2023-05-02T20:32:33;7.18;;;3.95;;
21138;SDS011;10727;43.600;1.444;2023-05-02T20:35:39;8.48;;;4.13;;
21138;SDS011;10727;43.600;1.444;2023-05-02T20:38:46;8.15;;;3.65;;
21138;SDS011;10727;43.600;1.444;2023-05-02T20:41:52;9.40;;;3.92;;
21138;SDS011;10727;43.600;1.444;2023-05-02T20:45:00;7.75;;;4.60;;
21138;SDS011;10727;43.600;1.444;2023-05-02T20:48:07;13.77;;;5.22;;
21138;SDS011;10727;43.600;1.444;2023-05-02T20:51:14;10.43;;;5.97;;
21138;SDS011;10727;43.600;1.444;2023-05-02T20:54:21;10.48;;;6.32;;
21138;SDS011;10727;43.600;1.444;2023-05-02T20:57:26;14.20;;;6.40;;
21138;SDS011;10727;43.600;1.444;2023-05-02T21:00:31;7.93;;;5.45;;
21138;SDS011;10727;43.600;1.444;2023-05-02T21:03:36;9.55;;;5.32;;
21138;SDS011;10727;43.600;1.444;2023-05-02T21:06:42;10.40;;;5.45;;
21138;SDS011;10727;43.600;1.444;2023-05-02T21:09:49;11.75;;;5.65;;
21138;SDS011;10727;43.600;1.444;2023-05-02T21:12:54;9.80;;;5.72;;
21138;SDS011;10727;43.600;1.444;2023-05-02T21:15:59;11.23;;;5.28;;
21138;SDS011;10727;43.600;1.444;2023-05-02T21:19:04;12.15;;;5.60;;
21138;SDS011;10727;43.600;1.444;2023-05-02T21:22:10;12.38;;;5.40;;
21138;SDS011;10727;43.600;1.444;2023-05-02T21:25:16;9.40;;;4.97;;
21138;SDS011;10727;43.600;1.444;2023-05-02T21:28:21;9.35;;;5.57;;
21138;SDS011;10727;43.600;1.444;2023-05-02T21:31:27;14.32;;;6.63;;
21138;SDS011;10727;43.600;1.444;2023-05-02T21:34:32;8.95;;;6.15;;
21138;SDS011;10727;43.600;1.444;2023-05-02T21:37:37;9.52;;;5.45;;
21138;SDS011;10727;43.600;1.444;2023-05-02T21:40:44;7.93;;;4.75;;
21138;SDS011;10727;43.600;1.444;2023-05-02T21:43:49;10.90;;;4.70;;
21138;SDS011;10727;43.600;1.444;2023-05-02T21:46:54;12.32;;;4.88;;
21138;SDS011;10727;43.600;1.444;2023-05-02T21:49:59;7.95;;;4.57;;
21138;SDS011;10727;43.600;1.444;2023-05-02T21:53:05;9.00;;;4.47;;
21138;SDS011;10727;43.600;1.444;2023-05-02T21:56:12;7.22;;;4.10;;
21138;SDS011;10727;43.600;1.444;2023-05-02T21:59:17;6.20;;;4.30;;
21138;SDS011;10727;43.600;1.444;2023-05-02T22:02:23;7.78;;;4.07;;
21138;SDS011;10727;43.600;1.444;2023-05-02T22:05:29;7.93;;;4.22;;
21138;SDS011;10727;43.600;1.444;2023-05-02T22:08:35;12.32;;;4.43;;
21138;SDS011;10727;43.600;1.444;2023-05-02T22:11:42;8.35;;;4.38;;
21138;SDS011;10727;43.600;1.444;2023-05-02T22:14:47;9.02;;;4.68;;
21138;SDS011;10727;43.600;1.444;2023-05-02T22:17:52;7.05;;;4.15;;
21138;SDS011;10727;43.600;1.444;2023-05-02T22:20:57;8.40;;;4.65;;
21138;SDS011;10727;43.600;1.444;2023-05-02T22:24:03;8.27;;;4.38;;
21138;SDS011;10727;43.600;1.444;2023-05-02T22:27:09;8.23;;;4.93;;
21138;SDS011;10727;43.600;1.444;2023-05-02T22:30:15;11.48;;;5.03;;
21138;SDS011;10727;43.600;1.444;2023-05-02T22:33:20;9.57;;;5.47;;
21138;SDS011;10727;43.600;1.444;2023-05-02T22:36:25;7.70;;;5.05;;
21138;SDS011;10727;43.600;1.444;2023-05-02T22:39:30;9.82;;;5.47;;
21138;SDS011;10727;43.600;1.444;2023-05-02T22:42:37;8.68;;;4.70;;
21138;SDS011;10727;43.600;1.444;2023-05-02T22:45:42;8.85;;;5.18;;
21138;SDS011;10727;43.600;1.444;2023-05-02T22:48:47;10.50;;;5.82;;
21138;SDS011;10727;43.600;1.444;2023-05-02T22:51:55;10.30;;;6.13;;
21138;SDS011;10727;43.600;1.444;2023-05-02T22:55:01;12.65;;;6.28;;
21138;SDS011;10727;43.600;1.444;2023-05-02T22:58:07;10.00;;;7.18;;
21138;SDS011;10727;43.600;1.444;2023-05-02T23:01:13;11.73;;;7.20;;
21138;SDS011;10727;43.600;1.444;2023-05-02T23:04:18;12.40;;;7.10;;
21138;SDS011;10727;43.600;1.444;2023-05-02T23:07:24;10.02;;;6.28;;
21138;SDS011;10727;43.600;1.444;2023-05-02T23:10:29;9.18;;;6.35;;
21138;SDS011;10727;43.600;1.444;2023-05-02T23:13:35;10.20;;;6.03;;
21138;SDS011;10727;43.600;1.444;2023-05-02T23:16:41;8.57;;;5.80;;
21138;SDS011;10727;43.600;1.444;2023-05-02T23:19:46;8.45;;;5.82;;
21138;SDS011;10727;43.600;1.444;2023-05-02T23:22:51;9.70;;;6.05;;
21138;SDS011;10727;43.600;1.444;2023-05-02T23:25:56;8.38;;;5.32;;
21138;SDS011;10727;43.600;1.444;2023-05-02T23:29:03;8.10;;;5.10;;
21138;SDS011;10727;43.600;1.444;2023-05-02T23:32:08;7.50;;;4.75;;
21138;SDS011;10727;43.600;1.444;2023-05-02T23:35:14;7.45;;;4.88;;
21138;SDS011;10727;43.600;1.444;2023-05-02T23:38:19;7.07;;;4.20;;
21138;SDS011;10727;43.600;1.444;2023-05-02T23:41:24;6.47;;;3.70;;
21138;SDS011;10727;43.600;1.444;2023-05-02T23:44:31;5.95;;;4.00;;
21138;SDS011;10727;43.600;1.444;2023-05-02T23:47:37;11.23;;;4.28;;
21138;SDS011;10727;43.600;1.444;2023-05-02T23:50:42;10.30;;;4.60;;
21138;SDS011;10727;43.600;1.444;2023-05-02T23:53:47;6.35;;;4.03;;
21138;SDS011;10727;43.600;1.444;2023-05-02T23:56:53;7.30;;;4.50;;
